Terminal Aerodrome Forecast
Issued by NWS Cleveland, OH

Home | Current Version | Previous Version | Text Only | Print | Product List | Glossary On
Versions: 1 2 3 4 5 6 7 8 9 10 11 12 13
000
FTUS41 KCLE 270542
TAFTOL
TAF
KTOL 270542Z 2706/2806 18010KT P6SM SCT100 OVC250
     FM271300 20015G25KT P6SM BKN050 OVC100
     FM271800 24015G25KT P6SM OVC035
     FM280100 25012KT P6SM BKN050=

USA.gov is the U.S. government's official web portal to all federal, state and local government web resources and services.